Terminal Aerodrome Forecast
Issued by NWS

Home | Current Version | Previous Version | Text Only | Print | Product List | Glossary On
Versions: 1 2 3 4 5 6 7 8 9 10 11 12 13 14
000
FTUS44 KTSA 282327
TAFXNA
TAF
KXNA 282327Z 2900/2924 01005KT P6SM SCT250
     FM291200 06010KT P6SM OVC050
     FM291500 09010KT P6SM VCTS OVC025CB
      TEMPO 2915/2919 4SM -TSRA BKN015CB
     FM291900 10010KT 6SM -TSRA OVC012CB=

USA.gov is the U.S. government's official web portal to all federal, state and local government web resources and services.